Weather observations for the past three days for
Hailey, Friedman Memorial Airport
Metric (Imperial)
Date Time (mdt) Wind (kph) Vis. (km) Weather Sky Cond. Temperature (ºC) Relative Humidity Wind Chill (°C) Heat Index (°C) Pressure Precipitation (cm)
Air Dwpt 6 hour altimeter (cm) sea level (mb) 1 hr 3 hr 6 hr
Max. Min.
05 23:55 SE 9 16.09 Fair CLR 0 0 0% 76.1 0.0
05 23:35 SE 13 16.09 Fair CLR 0 0 0% 76.07 0.0
05 23:15 S 6 16.09 Fair CLR 0 0 0% 76.05 0.0
05 21:50 NW 7 16.09 Fair CLR 10 1 54% 9 75.97 0.0
05 20:50 S 11 16.09 Fair CLR 13 3 51% 75.87 0.0
05 19:50 SE 19 16.09 Fair CLR 16 1 36% 75.74 0.0
05 18:50 SE 19 16.09 Partly Cloudy SCT100 17 2 37% 75.72 0.0
05 17:50 S 15 16.09 Partly Cloudy SCT100 20 -2 23% 75.69 0.0
05 16:50 SW 19 G 28 16.09 Partly Cloudy SCT100 19 2 32% 75.72 0.0
05 15:50 SW 15 G 28 16.09 Partly Cloudy SCT100 19 2 32% 75.77 0.0
05 14:50 SW 19 G 31 16.09 A Few Clouds FEW070 20 2 30% 75.82 0.0
05 13:50 SW 19 16.09 A Few Clouds FEW080 19 1 30% 75.87 0.0
05 12:50 S 15 16.09 A Few Clouds FEW070 17 1 34% 75.9 0.0
05 11:50 SE 19 16.09 A Few Clouds FEW050 16 1 36% 75.92 0.0
05 10:50 SE 19 16.09 A Few Clouds FEW050 14 0 39% 75.92 0.0
05 09:50 SE 19 16.09 Mostly Cloudy BKN 12 0 44% 75.92 0.0
05 08:50 SE 13 16.09 Mostly Cloudy BKN 11 0 47% 75.9 0.0
05 07:50 SE 11 16.09 Mostly Cloudy BKN 11 0 47% 75.9 0.0
05 06:50 W 11 16.09 Mostly Cloudy BKN090 BKN110 9 1 58% 8 75.82 0.0
05 06:35 NW 7 16.09 Overcast SCT060 OVC100 0 0 0% 75.79 0.0
05 06:15 NW 7 16.09 Light Rain SCT060 BKN080 OVC100 0 0 0% 75.79 0.0
05 05:55 NW 9 16.09 Overcast OVC080 0 0 0% 75.79 0.0
05 05:35 N 7 16.09 Overcast OVC090 0 0 0% 75.79 0.0
05 05:15 Calm 16.09 Overcast OVC100 0 0 0% 75.77 0.0
05 04:55 Calm 16.09 Overcast OVC100 0 0 0% 75.77 0.0
05 04:35 N 7 16.09 Mostly Cloudy BKN100 0 0 0% 75.74 0.0
05 04:15 N 6 16.09 Fair CLR 0 0 0% 75.74 0.0
05 03:55 NW 6 16.09 Fair CLR 0 0 0% 75.74 0.0
05 03:35 NW 9 16.09 Fair CLR 0 0 0% 75.74 0.0
05 03:15 Calm 16.09 Fair CLR 0 0 0% 75.74 0.0
05 02:55 NW 9 16.09 Partly Cloudy SCT095 0 0 0% 75.74 0.0
05 02:35 NW 13 16.09 Mostly Cloudy BKN095 0 0 0% 75.74 0.0
05 02:15 NW 9 16.09 Overcast OVC095 0 0 0% 75.77 0.0
05 01:55 Calm 16.09 Partly Cloudy SCT095 SCT120 0 0 0% 75.77 0.0
05 01:35 NW 9 16.09 Partly Cloudy SCT095 0 0 0% 75.77 0.0
05 01:15 NW 13 16.09 Partly Cloudy SCT095 0 0 0% 75.74 0.0
05 00:55 N 7 16.09 Fair CLR 0 0 0% 75.74 0.0
05 00:35 NW 15 16.09 Partly Cloudy SCT095 0 0 0% 75.72 0.0
05 00:15 N 7 16.09 Partly Cloudy SCT095 0 0 0% 75.72 0.0
04 23:55 W 9 16.09 Fair CLR 0 0 0% 75.69 0.0
04 23:35 NW 9 16.09 Fair CLR 0 0 0% 75.69 0.0
04 23:15 NW 6 16.09 Partly Cloudy SCT110 0 0 0% 75.69 0.0
04 21:47 N 7 16.09 Mostly Cloudy BKN110 15 2 42% 75.64 0.0
04 20:47 NW 7 16.09 Partly Cloudy SCT110 17 1 34% 75.59 0.0
04 19:47 S 7 16.09 Fair CLR 19 -1 26% 75.57 0.0
04 18:47 S 11 16.09 Fair CLR 20 -1 24% 75.59 0.0
04 17:47 E 19 16.09 Overcast BKN100 OVC120 19 -1 26% 75.59 0.0
04 16:47 SW 11 16.09 Partly Cloudy SCT100 23 -3 17% 75.59 0.0
04 15:47 NW 19 16.09 Partly Cloudy SCT100 22 -3 19% 75.62 0.0
04 14:47 SE 11 16.09 Partly Cloudy SCT100 22 -2 20% 75.69 0.0
04 13:47 SE 15 16.09 Partly Cloudy SCT120 21 -2 21% 75.77 0.0
04 12:47 SE 22 G 37 16.09 Partly Cloudy SCT120 21 -2 21% 75.79 0.0
04 11:47 SE 22 16.09 Partly Cloudy SCT120 20 -3 21% 75.84 0.0
04 10:50 Calm 16.09 Partly Cloudy SCT120 18 -4 22% 75.87 0.0
04 09:47 NW 15 16.09 Fair CLR 15 -2 31% 75.9 0.0
04 08:50 NW 19 16.09 Fair CLR 11 -2 41% 75.92 0.0
04 07:54 NW 19 G 33 16.09 Fair CLR 8 -3 46% 5 75.92 0.0
04 06:50 NW 15 16.09 Fair CLR 7 -3 49% 5 75.9 0.0
04 06:35 NW 19 16.09 Fair CLR 0 0 0% 75.87 0.0
04 06:15 NW 19 16.09 Fair CLR 0 0 0% 75.87 0.0
04 05:55 NW 20 G 28 16.09 Fair CLR 0 0 0% 75.87 0.0
04 05:35 NW 19 G 28 16.09 Fair CLR 0 0 0% 75.87 0.0
04 05:15 NW 17 16.09 Fair CLR 0 0 0% 75.9 0.0
04 04:55 NW 17 16.09 Fair CLR 0 0 0% 75.9 0.0
04 04:35 NW 15 16.09 Fair CLR 0 0 0% 75.92 0.0
04 04:15 NW 19 G 28 16.09 Fair CLR 0 0 0% 75.9 0.0
04 03:55 NW 17 16.09 Fair CLR 0 0 0% 75.92 0.0
04 03:35 NW 17 16.09 Fair CLR 0 0 0% 75.87 0.0
04 03:15 NW 19 16.09 Fair CLR 0 0 0% 75.9 0.0
04 02:55 NW 19 16.09 Fair CLR 0 0 0% 75.92 0.0
04 02:35 NW 20 16.09 Fair CLR 0 0 0% 75.92 0.0
04 02:15 NW 19 16.09 Fair CLR 0 0 0% 75.92 0.0
04 01:55 NW 22 16.09 Fair CLR 0 0 0% 75.95 0.0
04 01:35 NW 17 16.09 Fair CLR 0 0 0% 75.95 0.0
04 01:15 NW 17 16.09 Fair CLR 0 0 0% 75.95 0.0
04 00:55 NW 17 16.09 Fair CLR 0 0 0% 75.95 0.0
04 00:15 NW 15 16.09 Fair CLR 0 0 0% 75.95 0.0
03 23:55 NW 11 16.09 Fair CLR 0 0 0% 75.95 0.0
03 23:35 NW 13 16.09 Fair CLR 0 0 0% 75.95 0.0
03 23:15 NW 13 16.09 Fair CLR 0 0 0% 75.95 0.0
03 22:47 NW 9 16.09 Fair CLR 11 -2 41% 75.97 0.0
03 21:47 NW 11 16.09 Fair CLR 13 -2 36% 75.95 0.0
03 20:47 W 9 16.09 Fair CLR 16 -1 31% 75.9 0.0
03 19:47 N 11 16.09 Fair CLR 20 -3 21% 75.92 0.0
03 18:47 Calm 16.09 Fair CLR 20 -4 20% 75.97 0.0
03 17:47 NW 11 16.09 Partly Cloudy SCT110 20 -4 20% 76.02 0.0
03 16:47 W 17 16.09 Partly Cloudy SCT110 19 -4 21% 76.05 0.0
03 15:47 W 19 G 28 16.09 Fair CLR 21 -3 20% 76.1 0.0
03 14:47 SE 9 16.09 Fair CLR 23 -6 14% 76.1 0.0
03 13:47 S 11 16.09 Fair CLR 21 -6 16% 76.17 0.0
03 12:47 SE 20 16.09 Fair CLR 21 -5 17% 76.23 0.0
03 11:47 SE 19 G 31 16.09 Fair CLR 19 -6 18% 76.28 0.0
03 10:47 SE 11 16.09 Fair CLR 18 -6 19% 76.3 0.0
03 09:47 NW 19 16.09 Fair CLR 15 -4 27% 76.33 0.0
03 08:47 NW 19 16.09 Fair CLR 11 -5 32% 76.35 0.0
03 07:47 NW 19 16.09 Fair CLR 7 -6 39% 4 76.38 0.0
03 06:47 NW 19 16.09 Fair CLR 4 -6 48% 0 76.38 0.0
03 06:35 NW 20 G 28 16.09 Fair CLR 0 0 0% 76.35 0.0
03 06:15 NW 19 G 30 16.09 Fair CLR 0 0 0% 76.35 0.0
03 05:55 NW 17 16.09 Fair CLR 0 0 0% 76.35 0.0
03 05:35 NW 19 16.09 Fair CLR 0 0 0% 76.38 0.0
03 05:15 NW 22 16.09 Fair CLR 0 0 0% 76.38 0.0
03 04:55 NW 20 G 28 16.09 Fair CLR 0 0 0% 76.38 0.0
03 04:35 NW 19 16.09 Fair CLR 0 0 0% 76.38 0.0
03 04:15 NW 19 16.09 Fair CLR 0 0 0% 76.38 0.0
03 03:55 NW 19 16.09 Fair CLR 0 0 0% 76.38 0.0
03 03:35 NW 20 16.09 Fair CLR 0 0 0% 76.38 0.0
03 03:15 NW 17 16.09 Fair CLR 0 0 0% 76.38 0.0
03 02:55 NW 13 16.09 Fair CLR 0 0 0% 76.4 0.0
03 02:35 NW 20 G 26 16.09 Fair CLR 0 0 0% 76.4 0.0
03 02:15 NW 19 16.09 Fair CLR 0 0 0% 76.4 0.0
03 01:55 NW 19 16.09 Fair CLR 0 0 0% 76.4 0.0
03 01:35 NW 19 16.09 Fair CLR 0 0 0% 76.4 0.0
03 01:20 NW 15 16.09 Fair CLR 0 0 0% 76.4 0.0
03 00:55 NW 13 16.09 Fair CLR 0 0 0% 76.4 0.0
03 00:35 NW 17 16.09 Fair CLR 0 0 0% 76.4 0.0
03 00:15 NW 15 16.09 Fair CLR 0 0 0% 76.4 0.0
Date Time (mdt) Wind (kph) Vis. (km) Weather Sky Cond. Air Dwpt Max. Min. Relative Humidity Wind Chill (°C) Heat Index (°C) altimeter (cm) sea level (mb) 1 hr 3 hr 6 hr
6 hour
Temperature (ºC) Pressure Precipitation (cm)